createdAt,value
2023-02-14T00:01:49.338Z,99.78
2023-02-14T00:04:19.405Z,100.00
2023-02-14T00:06:48.446Z,100.00
2023-02-14T00:09:20.565Z,100.00
2023-02-14T00:11:49.815Z,100.00
2023-02-14T00:14:36.911Z,100.00
2023-02-14T00:17:05.380Z,100.00
2023-02-14T00:19:36.357Z,100.00
2023-02-14T00:22:05.885Z,100.00
2023-02-14T00:24:34.894Z,100.00
2023-02-14T00:27:03.455Z,100.00
2023-02-14T00:29:32.694Z,100.00
2023-02-14T00:32:04.274Z,100.00
2023-02-14T00:34:33.706Z,100.00
2023-02-14T00:37:03.031Z,100.00
2023-02-14T00:39:31.461Z,100.00
2023-02-14T00:41:59.909Z,100.00
2023-02-14T00:44:28.460Z,100.00
2023-02-14T00:46:57.110Z,100.00
2023-02-14T00:49:25.651Z,100.00
2023-02-14T00:51:54.191Z,100.00
2023-02-14T00:54:22.862Z,100.00
2023-02-14T00:56:52.429Z,100.00
2023-02-14T00:59:20.901Z,99.38
2023-02-14T01:01:50.180Z,99.82
2023-02-14T01:04:18.889Z,100.00
2023-02-14T01:06:47.589Z,100.00
2023-02-14T01:09:16.050Z,100.00
2023-02-14T01:11:44.543Z,100.00
2023-02-14T01:14:12.976Z,100.00
2023-02-14T01:16:41.485Z,99.80
2023-02-14T01:19:10.054Z,99.82
2023-02-14T01:21:38.646Z,99.26
2023-02-14T01:24:08.554Z,99.42
2023-02-14T01:26:37.232Z,99.82
2023-02-14T01:29:06.148Z,99.03
2023-02-14T01:31:36.282Z,99.28
2023-02-14T01:34:05.158Z,99.29
2023-02-14T01:36:39.772Z,99.96
2023-02-14T01:39:14.213Z,99.55
2023-02-14T01:41:44.526Z,99.97
2023-02-14T01:44:16.073Z,100.00
2023-02-14T01:46:46.697Z,100.00
2023-02-14T01:49:22.352Z,100.00
2023-02-14T01:52:04.717Z,100.00
2023-02-14T01:54:36.395Z,100.00
2023-02-14T01:57:10.047Z,100.00
2023-02-14T01:59:43.883Z,99.93
2023-02-14T02:02:12.759Z,99.91
2023-02-14T02:04:45.113Z,99.90
2023-02-14T02:07:19.776Z,99.99
2023-02-14T02:09:55.119Z,99.90
2023-02-14T02:12:25.336Z,100.00
2023-02-14T02:14:56.709Z,100.00
2023-02-14T02:17:37.600Z,100.00
2023-02-14T02:20:24.327Z,100.00
2023-02-14T02:23:04.786Z,100.00
2023-02-14T02:25:57.726Z,100.00
2023-02-14T02:29:03.870Z,100.00
2023-02-14T02:31:52.965Z,100.00
2023-02-14T02:34:40.080Z,100.00
2023-02-14T02:37:20.674Z,100.00
2023-02-14T02:40:31.604Z,100.00
2023-02-14T02:43:48.279Z,100.00
2023-02-14T02:46:50.373Z,100.00
2023-02-14T02:50:00.801Z,100.00
2023-02-14T02:53:03.428Z,100.00
2023-02-14T02:56:18.722Z,100.00
2023-02-14T02:59:18.606Z,100.00
2023-02-14T03:02:16.610Z,100.00
2023-02-14T03:04:56.446Z,100.00
2023-02-14T03:07:37.735Z,100.00
2023-02-14T03:10:20.270Z,100.00
2023-02-14T03:13:35.156Z,100.00
2023-02-14T03:16:20.627Z,100.00
2023-02-14T03:19:16.928Z,100.00
2023-02-14T03:22:05.665Z,100.00
2023-02-14T03:24:51.718Z,100.00
2023-02-14T03:27:33.007Z,100.00
2023-02-14T03:30:26.320Z,100.00
2023-02-14T03:33:06.522Z,100.00
2023-02-14T03:35:48.838Z,100.00
2023-02-14T03:38:29.939Z,100.00
2023-02-14T03:41:15.039Z,100.00
2023-02-14T03:43:49.992Z,100.00
2023-02-14T03:46:37.356Z,100.00
2023-02-14T03:49:12.086Z,100.00
2023-02-14T03:51:42.133Z,100.00
2023-02-14T03:54:13.972Z,100.00
2023-02-14T03:56:52.213Z,100.00
2023-02-14T03:59:24.725Z,100.00
2023-02-14T04:02:09.041Z,100.00
2023-02-14T04:04:43.006Z,100.00
2023-02-14T04:07:18.216Z,100.00
2023-02-14T04:09:47.171Z,100.00
2023-02-14T04:12:21.711Z,100.00
2023-02-14T04:14:52.688Z,100.00
2023-02-14T04:17:39.913Z,100.00
2023-02-14T04:20:08.639Z,100.00
2023-02-14T04:22:37.091Z,100.00
2023-02-14T04:25:06.003Z,100.00
2023-02-14T04:27:34.477Z,100.00
2023-02-14T04:30:04.388Z,100.00
2023-02-14T04:32:32.925Z,100.00
2023-02-14T04:35:01.595Z,100.00
2023-02-14T04:37:30.126Z,100.00
2023-02-14T04:39:58.605Z,100.00
2023-02-14T04:42:27.306Z,100.00
2023-02-14T04:44:55.870Z,100.00
2023-02-14T04:47:24.306Z,100.00
2023-02-14T04:49:52.741Z,100.00
2023-02-14T04:52:21.136Z,100.00
2023-02-14T04:54:49.608Z,100.00
2023-02-14T04:57:18.148Z,100.00
2023-02-14T04:59:46.693Z,100.00
2023-02-14T05:02:15.273Z,100.00
2023-02-14T05:04:43.827Z,100.00
2023-02-14T05:07:12.810Z,100.00
2023-02-14T05:09:41.209Z,100.00
2023-02-14T05:12:09.678Z,100.00
2023-02-14T05:14:38.081Z,100.00
2023-02-14T05:17:06.537Z,100.00
2023-02-14T05:19:35.006Z,100.00
2023-02-14T05:22:03.481Z,100.00
2023-02-14T05:24:32.050Z,100.00
2023-02-14T05:27:00.548Z,100.00
2023-02-14T05:29:29.322Z,100.00
2023-02-14T05:31:57.798Z,100.00
2023-02-14T05:34:26.311Z,100.00
2023-02-14T05:36:55.292Z,100.00
2023-02-14T05:39:23.867Z,100.00
2023-02-14T05:41:52.331Z,100.00
2023-02-14T05:44:20.971Z,100.00
2023-02-14T05:46:49.873Z,100.00
2023-02-14T05:49:18.420Z,100.00
2023-02-14T05:51:46.893Z,100.00
2023-02-14T05:54:15.490Z,100.00
2023-02-14T05:56:43.884Z,100.00
2023-02-14T05:59:14.468Z,100.00
2023-02-14T06:01:42.909Z,100.00
2023-02-14T06:04:11.392Z,100.00
2023-02-14T06:06:40.053Z,100.00
2023-02-14T06:09:08.509Z,100.00
2023-02-14T06:11:36.995Z,100.00
2023-02-14T06:14:05.550Z,100.00
2023-02-14T06:16:34.078Z,100.00
2023-02-14T06:19:02.555Z,100.00
2023-02-14T06:21:31.426Z,100.00
2023-02-14T06:23:59.862Z,100.00
2023-02-14T06:26:28.452Z,100.00
2023-02-14T06:28:59.200Z,100.00
2023-02-14T06:31:27.891Z,100.00
2023-02-14T06:33:56.811Z,100.00
2023-02-14T06:36:25.586Z,100.00
2023-02-14T06:38:54.328Z,100.00
2023-02-14T06:41:22.827Z,100.00
2023-02-14T06:43:51.419Z,100.00
2023-02-14T06:46:20.717Z,100.00
2023-02-14T06:48:49.479Z,100.00
2023-02-14T06:51:18.040Z,100.00
2023-02-14T06:53:46.448Z,100.00
2023-02-14T06:56:14.968Z,100.00
2023-02-14T06:58:43.442Z,100.00
2023-02-14T07:01:11.957Z,100.00
2023-02-14T07:03:40.386Z,100.00
2023-02-14T07:06:08.892Z,100.00
2023-02-14T07:08:37.325Z,100.00
2023-02-14T07:11:06.016Z,100.00
2023-02-14T07:13:34.503Z,100.00
2023-02-14T07:16:03.314Z,100.00
2023-02-14T07:18:31.866Z,100.00
2023-02-14T07:21:00.641Z,100.00
2023-02-14T07:23:29.593Z,99.78
2023-02-14T07:25:58.080Z,99.17
2023-02-14T07:28:26.599Z,99.66
2023-02-14T07:30:55.173Z,99.04
2023-02-14T07:33:23.920Z,98.80
2023-02-14T07:35:52.445Z,98.65
2023-02-14T07:38:20.945Z,97.97
2023-02-14T07:40:49.362Z,99.06
2023-02-14T07:43:20.111Z,100.00
2023-02-14T07:45:49.158Z,99.37
2023-02-14T07:48:17.674Z,98.93
2023-02-14T07:50:46.360Z,98.65
2023-02-14T07:53:15.213Z,99.03
2023-02-14T07:55:43.681Z,96.86
2023-02-14T07:58:12.117Z,95.91
2023-02-14T08:00:40.639Z,95.48
2023-02-14T08:03:09.130Z,98.15
2023-02-14T08:05:38.382Z,98.63
2023-02-14T08:08:06.934Z,98.31
2023-02-14T08:10:35.453Z,98.06
2023-02-14T08:13:04.241Z,97.40
2023-02-14T08:15:53.697Z,95.71
2023-02-14T08:18:23.421Z,94.96
2023-02-14T08:20:52.015Z,94.78
2023-02-14T08:23:21.518Z,92.77
2023-02-14T08:25:51.816Z,92.90
2023-02-14T08:28:23.908Z,93.05
2023-02-14T08:30:53.204Z,91.30
2023-02-14T08:33:22.286Z,92.77
2023-02-14T08:35:52.058Z,94.28
2023-02-14T08:38:20.595Z,93.02
2023-02-14T08:40:49.138Z,92.30
2023-02-14T08:43:17.796Z,90.78
2023-02-14T08:45:48.685Z,90.93
2023-02-14T08:48:17.175Z,91.39
2023-02-14T08:50:45.749Z,91.60
2023-02-14T08:53:14.292Z,90.60
2023-02-14T08:55:42.902Z,89.05
2023-02-14T08:58:11.633Z,87.52
2023-02-14T09:00:40.365Z,87.92
2023-02-14T09:03:10.919Z,86.56
2023-02-14T09:05:39.605Z,85.01
2023-02-14T09:08:08.168Z,83.42
2023-02-14T09:10:36.998Z,83.67
2023-02-14T09:13:06.016Z,84.14
2023-02-14T09:15:34.889Z,84.12
2023-02-14T09:18:03.478Z,83.90
2023-02-14T09:20:32.234Z,83.12
2023-02-14T09:23:00.695Z,82.05
2023-02-14T09:25:29.209Z,82.34
2023-02-14T09:27:57.702Z,82.32
2023-02-14T09:30:26.367Z,82.52
2023-02-14T09:32:55.097Z,81.33
2023-02-14T09:35:42.092Z,80.96
2023-02-14T09:38:20.996Z,78.90
2023-02-14T09:40:50.813Z,78.63
2023-02-14T09:43:34.651Z,79.68
2023-02-14T09:46:04.677Z,80.27
2023-02-14T09:48:38.605Z,77.72
2023-02-14T09:51:23.791Z,75.57
2023-02-14T09:54:02.817Z,75.03
2023-02-14T09:56:52.517Z,75.75
2023-02-14T09:59:29.965Z,75.04
2023-02-14T10:02:16.364Z,74.72
2023-02-14T10:04:56.959Z,75.33
2023-02-14T10:07:41.013Z,73.99
2023-02-14T10:10:25.687Z,73.83
2023-02-14T10:13:03.162Z,74.39
2023-02-14T10:15:48.467Z,72.64
2023-02-14T10:18:36.044Z,71.88
2023-02-14T10:21:08.355Z,70.99
2023-02-14T10:23:51.764Z,69.79
2023-02-14T10:26:28.425Z,69.77
2023-02-14T10:28:57.165Z,69.13
2023-02-14T10:31:51.817Z,69.14
2023-02-14T10:34:37.434Z,68.92
2023-02-14T10:37:43.416Z,69.01
2023-02-14T10:40:49.534Z,70.27
2023-02-14T10:43:45.702Z,73.26
2023-02-14T10:46:16.466Z,71.91
2023-02-14T10:48:57.393Z,70.68
2023-02-14T10:51:41.236Z,69.99
2023-02-14T10:54:20.949Z,69.85
2023-02-14T10:57:01.073Z,69.01
2023-02-14T10:59:39.650Z,68.44
2023-02-14T11:02:14.137Z,68.00
2023-02-14T11:04:44.219Z,66.24
2023-02-14T11:07:14.893Z,66.22
2023-02-14T11:09:43.329Z,67.11
2023-02-14T11:12:12.682Z,67.89
2023-02-14T11:14:41.452Z,66.67
2023-02-14T11:17:32.591Z,66.89
2023-02-14T11:20:06.914Z,67.23
2023-02-14T11:22:35.965Z,67.32
2023-02-14T11:25:08.526Z,67.56
2023-02-14T11:27:37.893Z,67.06
2023-02-14T11:30:20.150Z,67.30
2023-02-14T11:32:56.478Z,67.18
2023-02-14T11:35:34.054Z,66.94
2023-02-14T11:38:06.157Z,65.67
2023-02-14T11:40:38.193Z,66.97
2023-02-14T11:43:14.755Z,67.16
2023-02-14T11:45:46.299Z,67.09
2023-02-14T11:48:37.771Z,65.89
2023-02-14T11:51:16.230Z,65.18
2023-02-14T11:53:52.265Z,66.74
2023-02-14T11:56:22.731Z,67.64
2023-02-14T11:58:57.343Z,68.81
2023-02-14T12:01:30.894Z,68.53
2023-02-14T12:04:05.623Z,67.33
2023-02-14T12:06:36.950Z,66.80
2023-02-14T12:09:12.959Z,65.70
2023-02-14T12:11:41.508Z,64.75
2023-02-14T12:14:22.439Z,63.26
2023-02-14T12:17:05.115Z,62.58
2023-02-14T12:19:46.350Z,63.54
2023-02-14T12:22:28.287Z,63.85
2023-02-14T12:25:21.682Z,65.16
2023-02-14T12:28:04.371Z,66.63
2023-02-14T12:30:35.089Z,67.19
2023-02-14T12:33:06.189Z,66.68
2023-02-14T12:36:01.883Z,65.25
2023-02-14T12:39:18.204Z,65.58
2023-02-14T12:41:46.558Z,65.78
2023-02-14T12:44:30.786Z,66.35
2023-02-14T12:47:28.879Z,65.57
2023-02-14T12:50:27.675Z,65.43
2023-02-14T12:53:17.474Z,65.49
2023-02-14T12:56:02.741Z,66.60
2023-02-14T12:58:58.537Z,65.96
2023-02-14T13:01:38.891Z,65.21
2023-02-14T13:04:27.054Z,65.29
2023-02-14T13:07:09.379Z,65.67
2023-02-14T13:10:15.535Z,66.37
2023-02-14T13:13:08.447Z,65.27
2023-02-14T13:15:56.179Z,66.07
2023-02-14T13:18:49.970Z,64.87
2023-02-14T13:21:24.766Z,64.85
2023-02-14T13:24:06.594Z,65.35
2023-02-14T13:26:40.183Z,65.22
2023-02-14T13:29:16.986Z,64.69
2023-02-14T13:31:45.818Z,64.98
2023-02-14T13:34:24.636Z,65.34
2023-02-14T13:36:55.752Z,64.29
2023-02-14T13:39:38.319Z,64.57
2023-02-14T13:42:07.879Z,63.79
2023-02-14T13:44:39.127Z,64.06
2023-02-14T13:47:08.871Z,64.56
2023-02-14T13:49:40.718Z,63.27
2023-02-14T13:52:10.255Z,63.49
2023-02-14T13:54:48.374Z,64.38
2023-02-14T13:57:31.669Z,64.06
2023-02-14T14:00:19.057Z,64.79
2023-02-14T14:02:51.969Z,65.79
2023-02-14T14:05:30.546Z,65.68
2023-02-14T14:08:21.147Z,65.30
2023-02-14T14:11:01.889Z,65.07
2023-02-14T14:13:42.451Z,65.68
2023-02-14T14:16:29.173Z,65.12
2023-02-14T14:19:00.557Z,64.42
2023-02-14T14:21:32.783Z,65.09
2023-02-14T14:24:26.548Z,65.06
2023-02-14T14:26:55.606Z,65.49
2023-02-14T14:29:36.235Z,65.97
2023-02-14T14:32:25.694Z,65.34
2023-02-14T14:35:01.064Z,64.58
2023-02-14T14:37:34.898Z,65.45
2023-02-14T14:40:06.938Z,66.16
2023-02-14T14:42:41.173Z,66.19
2023-02-14T14:45:23.116Z,65.61
2023-02-14T14:47:54.532Z,64.35
2023-02-14T14:50:31.953Z,64.14
2023-02-14T14:53:07.409Z,63.61
2023-02-14T14:55:38.127Z,64.27
2023-02-14T14:58:28.344Z,64.66
2023-02-14T15:00:56.945Z,64.60
2023-02-14T15:03:27.439Z,65.22
2023-02-14T15:06:20.799Z,65.64
2023-02-14T15:08:50.113Z,65.54
2023-02-14T15:11:46.379Z,64.89
2023-02-14T15:14:23.132Z,64.87
2023-02-14T15:16:57.867Z,64.99
2023-02-14T15:19:51.123Z,65.04
2023-02-14T15:22:24.213Z,65.49
2023-02-14T15:24:53.788Z,65.77
2023-02-14T15:27:25.399Z,66.44
2023-02-14T15:30:09.402Z,66.83
2023-02-14T15:32:38.562Z,66.93
2023-02-14T15:35:07.401Z,67.46
2023-02-14T15:37:35.993Z,67.10
2023-02-14T15:40:09.086Z,66.84
2023-02-14T15:42:43.768Z,67.64
2023-02-14T15:45:15.280Z,68.15
2023-02-14T15:47:47.847Z,69.01
2023-02-14T15:50:20.382Z,69.77
2023-02-14T15:52:49.076Z,71.01
2023-02-14T15:55:22.313Z,71.57
2023-02-14T15:58:03.638Z,71.92
2023-02-14T16:00:32.943Z,72.12
2023-02-14T16:03:06.229Z,72.33
2023-02-14T16:05:35.074Z,72.59
2023-02-14T16:08:23.382Z,73.86
2023-02-14T16:11:26.755Z,72.43
2023-02-14T16:13:55.162Z,71.70
2023-02-14T16:16:23.717Z,72.32
2023-02-14T16:18:56.819Z,72.77
2023-02-14T16:21:28.611Z,74.28
2023-02-14T16:24:12.298Z,74.35
2023-02-14T16:26:43.426Z,74.48
2023-02-14T16:29:16.976Z,76.03
2023-02-14T16:32:14.172Z,77.07
2023-02-14T16:34:38.426Z,78.04
2023-02-14T16:37:09.733Z,77.95
2023-02-14T16:39:39.592Z,77.58
2023-02-14T16:42:15.421Z,78.25
2023-02-14T16:44:45.025Z,79.43
2023-02-14T16:47:15.810Z,79.43
2023-02-14T16:49:44.658Z,80.14
2023-02-14T16:52:18.029Z,81.09
2023-02-14T16:54:46.499Z,82.52
2023-02-14T16:57:22.504Z,83.77
2023-02-14T16:59:51.594Z,86.40
2023-02-14T17:02:20.602Z,89.17
2023-02-14T17:04:49.634Z,89.87
2023-02-14T17:07:18.843Z,90.77
2023-02-14T17:09:52.987Z,92.48
2023-02-14T17:12:25.871Z,93.07
2023-02-14T17:14:58.545Z,95.23
2023-02-14T17:17:27.251Z,95.92
2023-02-14T17:19:55.767Z,95.42
2023-02-14T17:22:24.904Z,95.08
2023-02-14T17:24:54.633Z,96.92
2023-02-14T17:27:24.039Z,96.50
2023-02-14T17:29:52.795Z,97.57
2023-02-14T17:32:21.288Z,98.60
2023-02-14T17:34:49.898Z,100.00
2023-02-14T17:37:19.351Z,100.00
2023-02-14T17:39:47.879Z,100.00
2023-02-14T17:42:16.432Z,100.00
2023-02-14T17:44:45.005Z,100.00
2023-02-14T17:47:15.061Z,100.00
2023-02-14T17:49:47.689Z,100.00
2023-02-14T17:52:16.714Z,100.00
2023-02-14T17:54:45.156Z,100.00
2023-02-14T17:57:14.067Z,100.00
2023-02-14T17:59:42.907Z,100.00
2023-02-14T18:02:11.472Z,100.00
2023-02-14T18:04:40.768Z,100.00
2023-02-14T18:07:09.227Z,100.00
2023-02-14T18:09:37.813Z,100.00
2023-02-14T18:12:07.504Z,100.00
2023-02-14T18:14:36.648Z,100.00
2023-02-14T18:17:06.141Z,100.00
2023-02-14T18:19:34.818Z,100.00
2023-02-14T18:22:03.266Z,100.00
2023-02-14T18:24:31.707Z,100.00
2023-02-14T18:27:00.251Z,100.00
2023-02-14T18:29:28.749Z,100.00
2023-02-14T18:31:57.209Z,100.00
2023-02-14T18:34:25.691Z,100.00
2023-02-14T18:36:55.124Z,100.00
2023-02-14T18:39:23.659Z,100.00
2023-02-14T18:41:52.330Z,100.00
2023-02-14T18:44:22.187Z,100.00
2023-02-14T18:46:50.639Z,100.00
2023-02-14T18:49:19.290Z,100.00
2023-02-14T18:51:49.263Z,100.00
2023-02-14T18:54:17.733Z,100.00
2023-02-14T18:56:47.212Z,100.00
2023-02-14T18:59:16.925Z,100.00
2023-02-14T19:01:46.269Z,100.00
2023-02-14T19:04:14.920Z,100.00
2023-02-14T19:06:43.397Z,100.00
2023-02-14T19:09:14.581Z,100.00
2023-02-14T19:11:44.647Z,100.00
2023-02-14T19:14:13.689Z,100.00
2023-02-14T19:16:54.351Z,100.00
2023-02-14T19:19:23.548Z,100.00
2023-02-14T19:21:52.360Z,100.00
2023-02-14T19:24:22.166Z,100.00
2023-02-14T19:26:51.129Z,100.00
2023-02-14T19:29:21.785Z,100.00
2023-02-14T19:31:55.045Z,100.00
2023-02-14T19:34:28.908Z,100.00
2023-02-14T19:37:00.772Z,100.00
2023-02-14T19:39:30.498Z,100.00
2023-02-14T19:42:00.200Z,100.00
2023-02-14T19:44:29.534Z,100.00
2023-02-14T19:47:04.142Z,100.00
2023-02-14T19:49:34.381Z,100.00
2023-02-14T19:52:06.190Z,100.00
2023-02-14T19:54:39.015Z,100.00
2023-02-14T19:57:08.003Z,100.00
2023-02-14T19:59:36.392Z,100.00
2023-02-14T20:02:04.956Z,100.00
2023-02-14T20:04:33.472Z,100.00
2023-02-14T20:07:01.969Z,100.00
2023-02-14T20:09:30.436Z,100.00
2023-02-14T20:11:59.207Z,100.00
2023-02-14T20:14:38.415Z,100.00
2023-02-14T20:17:17.459Z,100.00
2023-02-14T20:19:45.935Z,100.00
2023-02-14T20:22:14.415Z,100.00
2023-02-14T20:24:42.923Z,100.00
2023-02-14T20:27:11.397Z,100.00
2023-02-14T20:29:43.338Z,100.00
2023-02-14T20:32:15.053Z,100.00
2023-02-14T20:34:44.446Z,100.00
2023-02-14T20:37:12.991Z,100.00
2023-02-14T20:39:41.425Z,100.00
2023-02-14T20:42:10.304Z,100.00
2023-02-14T20:44:38.740Z,100.00
2023-02-14T20:47:07.721Z,100.00
2023-02-14T20:49:36.275Z,100.00
2023-02-14T20:52:05.330Z,100.00
2023-02-14T20:54:33.884Z,100.00
2023-02-14T20:57:02.587Z,100.00
2023-02-14T20:59:31.292Z,100.00
2023-02-14T21:01:59.795Z,100.00
2023-02-14T21:04:29.764Z,100.00
2023-02-14T21:07:00.575Z,100.00
2023-02-14T21:09:29.112Z,100.00
2023-02-14T21:11:58.610Z,100.00
2023-02-14T21:14:27.390Z,100.00
2023-02-14T21:16:56.360Z,100.00
2023-02-14T21:19:26.521Z,100.00
2023-02-14T21:21:55.303Z,100.00
2023-02-14T21:24:24.626Z,100.00
2023-02-14T21:26:53.256Z,100.00
2023-02-14T21:29:21.860Z,100.00
2023-02-14T21:31:50.497Z,100.00
2023-02-14T21:34:19.039Z,100.00
2023-02-14T21:36:47.478Z,100.00
2023-02-14T21:39:15.993Z,100.00
2023-02-14T21:41:44.461Z,100.00
2023-02-14T21:44:32.875Z,100.00
2023-02-14T21:47:01.368Z,100.00
2023-02-14T21:49:48.441Z,100.00
2023-02-14T21:52:16.813Z,100.00
2023-02-14T21:54:45.260Z,100.00
2023-02-14T21:57:13.797Z,100.00
2023-02-14T21:59:42.231Z,100.00
2023-02-14T22:02:11.805Z,100.00
2023-02-14T22:04:40.874Z,100.00
2023-02-14T22:07:09.219Z,100.00
2023-02-14T22:09:37.678Z,100.00
2023-02-14T22:12:06.402Z,100.00
2023-02-14T22:14:34.941Z,100.00
2023-02-14T22:17:03.690Z,100.00
2023-02-14T22:19:32.758Z,100.00
2023-02-14T22:22:01.269Z,100.00
2023-02-14T22:24:30.216Z,100.00
2023-02-14T22:26:58.723Z,100.00
2023-02-14T22:29:28.002Z,100.00
2023-02-14T22:31:56.508Z,100.00
2023-02-14T22:34:25.255Z,100.00
2023-02-14T22:36:53.752Z,100.00
2023-02-14T22:39:22.620Z,100.00
2023-02-14T22:41:51.108Z,100.00
2023-02-14T22:44:19.535Z,100.00
2023-02-14T22:46:48.103Z,100.00
2023-02-14T22:49:16.637Z,100.00
2023-02-14T22:51:45.369Z,100.00
2023-02-14T22:54:15.895Z,100.00
2023-02-14T22:56:46.957Z,100.00
2023-02-14T22:59:19.804Z,100.00
2023-02-14T23:01:49.967Z,100.00
2023-02-14T23:04:21.892Z,100.00
2023-02-14T23:06:52.165Z,100.00
2023-02-14T23:09:21.373Z,100.00
2023-02-14T23:11:51.099Z,100.00
2023-02-14T23:14:39.061Z,100.00
2023-02-14T23:17:26.123Z,100.00
2023-02-14T23:20:13.493Z,100.00
2023-02-14T23:22:42.075Z,100.00
2023-02-14T23:25:12.686Z,100.00
2023-02-14T23:27:47.692Z,100.00
2023-02-14T23:30:19.239Z,100.00
2023-02-14T23:32:48.486Z,100.00
2023-02-14T23:35:17.045Z,100.00
2023-02-14T23:37:45.447Z,100.00
2023-02-14T23:40:14.415Z,100.00
2023-02-14T23:42:42.884Z,100.00
2023-02-14T23:45:30.350Z,100.00
2023-02-14T23:48:03.943Z,100.00
2023-02-14T23:50:32.733Z,100.00
2023-02-14T23:53:01.174Z,100.00
2023-02-14T23:55:29.636Z,100.00
2023-02-14T23:57:58.111Z,100.00
